Time;durP1;ratioP1;P1;durP2;ratioP2;P2;SDS_P1;SDS_P2;PMS_P1;PMS_P2;Temp;Humidity;BMP_temperature;BMP_pressure;BME280_temperature;BME280_humidity;BME280_pressure;Samples;Min_cycle;Max_cycle;Signal;HPM_P1;HPM_P2
2024/01/08 00:03:46;;;;;;;5.03;2.22;;;4.80;97.40;;;;;;10367628;28;20029;-68
2024/01/08 00:08:46;;;;;;;5.88;2.00;;;4.80;97.40;;;;;;10370903;28;20018;-68
2024/01/08 00:13:47;;;;;;;4.18;2.13;;;4.80;97.40;;;;;;10363755;28;20161;-68
2024/01/08 00:18:47;;;;;;;3.53;2.08;;;4.80;97.40;;;;;;10374940;28;20036;-68
2024/01/08 00:23:48;;;;;;;3.83;1.80;;;4.80;97.30;;;;;;10361826;28;20180;-68
2024/01/08 00:28:49;;;;;;;3.35;2.08;;;4.80;97.60;;;;;;10370012;28;20535;-68
2024/01/08 00:33:49;;;;;;;3.60;2.03;;;4.80;97.30;;;;;;10367504;28;20048;-68
2024/01/08 00:38:50;;;;;;;3.97;2.00;;;4.70;97.30;;;;;;10370479;28;20390;-68
2024/01/08 00:43:51;;;;;;;4.20;2.33;;;4.70;97.20;;;;;;10358520;28;20156;-68
2024/01/08 00:48:51;;;;;;;2.90;1.77;;;4.70;97.20;;;;;;10372730;28;20394;-68
2024/01/08 00:53:52;;;;;;;3.95;2.25;;;4.70;97.20;;;;;;10367547;28;20033;-68
2024/01/08 00:58:53;;;;;;;2.92;1.83;;;4.70;97.20;;;;;;10354333;28;20109;-67
2024/01/08 01:03:53;;;;;;;4.00;2.13;;;4.70;97.20;;;;;;10370774;28;20033;-67
2024/01/08 01:08:54;;;;;;;5.57;2.10;;;4.70;97.10;;;;;;10373489;28;20036;-68
2024/01/08 01:13:54;;;;;;;3.00;1.88;;;4.70;97.10;;;;;;10361779;28;20564;-68
2024/01/08 01:18:58;;;;;;;2.97;2.05;;;4.70;97.10;;;;;;10364928;28;20022;-67
2024/01/08 01:23:59;;;;;;;2.55;1.70;;;4.70;97.10;;;;;;10369555;28;20171;-68
2024/01/08 01:28:59;;;;;;;3.42;2.00;;;4.60;97.00;;;;;;10371667;28;20563;-68
2024/01/08 01:34:00;;;;;;;3.22;2.10;;;4.60;97.00;;;;;;10368990;28;20048;-68
2024/01/08 01:39:02;;;;;;;5.68;2.33;;;4.60;97.00;;;;;;10365086;28;20513;-68
2024/01/08 01:44:03;;;;;;;5.05;2.65;;;4.60;97.00;;;;;;10362098;28;20049;-68
2024/01/08 01:49:04;;;;;;;3.28;1.90;;;4.60;97.00;;;;;;10368677;28;20121;-68
2024/01/08 01:54:05;;;;;;;3.72;2.35;;;4.60;97.00;;;;;;10356421;28;20476;-67
2024/01/08 01:59:07;;;;;;;4.45;2.67;;;4.60;97.00;;;;;;10348678;28;20086;-68
2024/01/08 02:04:08;;;;;;;3.33;1.98;;;4.60;97.00;;;;;;10371038;28;20026;-68
2024/01/08 02:09:10;;;;;;;2.95;1.90;;;4.60;97.00;;;;;;10364931;28;20033;-67
2024/01/08 02:14:15;;;;;;;4.00;2.22;;;4.60;96.90;;;;;;10360933;28;20029;-68
2024/01/08 02:19:15;;;;;;;3.97;2.30;;;4.60;96.90;;;;;;10371868;28;20367;-68
2024/01/08 02:24:16;;;;;;;4.53;2.10;;;4.60;96.90;;;;;;10367585;28;20021;-67
2024/01/08 02:29:19;;;;;;;3.67;2.22;;;4.60;96.90;;;;;;10369060;28;20504;-68
2024/01/08 02:34:20;;;;;;;4.10;2.10;;;4.50;96.90;;;;;;10371113;28;20026;-67
2024/01/08 02:39:20;;;;;;;5.55;2.55;;;4.60;96.90;;;;;;10355922;28;20516;-68
2024/01/08 02:44:21;;;;;;;3.67;1.98;;;4.50;96.80;;;;;;10375067;28;20025;-68
2024/01/08 02:49:22;;;;;;;4.95;2.47;;;4.50;96.80;;;;;;10369186;28;20108;-67
2024/01/08 02:54:22;;;;;;;4.88;2.47;;;4.50;96.80;;;;;;10354819;28;20362;-67
2024/01/08 02:59:23;;;;;;;6.95;2.53;;;4.50;96.80;;;;;;10366065;28;20026;-67
2024/01/08 03:04:23;;;;;;;4.43;2.60;;;4.50;96.80;;;;;;10369168;28;20398;-67
2024/01/08 03:09:24;;;;;;;4.07;2.30;;;4.50;96.80;;;;;;10380620;28;20057;-67
2024/01/08 03:14:24;;;;;;;4.63;2.22;;;4.50;96.80;;;;;;10370661;28;20026;-67
2024/01/08 03:19:25;;;;;;;3.88;2.25;;;4.50;96.80;;;;;;10373008;28;20025;-67
2024/01/08 03:24:25;;;;;;;6.65;2.95;;;4.50;96.80;;;;;;10379098;28;20026;-67
2024/01/08 03:29:26;;;;;;;6.72;2.88;;;4.50;96.80;;;;;;10385334;28;20037;-68
2024/01/08 03:34:27;;;;;;;5.57;2.63;;;4.50;96.80;;;;;;10376929;28;20026;-67
2024/01/08 03:39:27;;;;;;;5.00;2.83;;;4.50;96.80;;;;;;10354773;28;20033;-67
2024/01/08 03:44:29;;;;;;;5.53;2.45;;;4.50;96.80;;;;;;10380783;28;20076;-67
2024/01/08 03:49:30;;;;;;;6.05;2.40;;;4.50;96.90;;;;;;10382854;28;20032;-68
2024/01/08 03:54:30;;;;;;;6.70;2.90;;;4.50;96.90;;;;;;10377458;28;20062;-67
2024/01/08 03:59:31;;;;;;;5.35;2.63;;;4.50;96.90;;;;;;10379849;28;20033;-67
2024/01/08 04:04:31;;;;;;;6.05;2.85;;;4.50;96.90;;;;;;10373893;28;20033;-67
2024/01/08 04:09:32;;;;;;;4.95;2.38;;;4.50;96.90;;;;;;10378115;28;20421;-67
2024/01/08 04:14:33;;;;;;;4.40;2.72;;;4.50;96.90;;;;;;10359129;28;20036;-67
2024/01/08 04:19:33;;;;;;;4.97;2.58;;;4.50;96.90;;;;;;10370109;28;20033;-68
2024/01/08 04:24:34;;;;;;;6.18;2.80;;;4.50;96.90;;;;;;10365298;28;20176;-68
2024/01/08 04:29:35;;;;;;;4.72;2.80;;;4.50;96.90;;;;;;10372537;28;20099;-67
2024/01/08 04:34:36;;;;;;;5.90;3.03;;;4.50;96.90;;;;;;10371819;28;20032;-67
2024/01/08 04:39:38;;;;;;;5.70;2.95;;;4.50;97.00;;;;;;10359427;28;20009;-68
2024/01/08 04:44:39;;;;;;;6.15;2.83;;;4.50;97.00;;;;;;10359949;28;20044;-67
2024/01/08 04:49:40;;;;;;;6.53;2.88;;;4.50;97.00;;;;;;10366890;28;20511;-67
2024/01/08 04:54:42;;;;;;;4.45;2.70;;;4.50;97.00;;;;;;10362714;28;20478;-68
2024/01/08 04:59:43;;;;;;;6.40;3.00;;;4.50;97.00;;;;;;10361828;28;20089;-67
2024/01/08 05:04:43;;;;;;;5.78;3.10;;;4.50;97.00;;;;;;10357695;28;20500;-68
2024/01/08 05:09:44;;;;;;;4.65;2.30;;;4.50;97.00;;;;;;10368842;28;20041;-68
2024/01/08 05:14:44;;;;;;;4.75;2.40;;;4.50;97.00;;;;;;10371081;28;20079;-67
2024/01/08 05:19:45;;;;;;;4.45;2.40;;;4.50;97.00;;;;;;10373429;28;20032;-67
2024/01/08 05:24:46;;;;;;;4.68;2.65;;;4.50;97.00;;;;;;10354880;28;20026;-68
2024/01/08 05:29:46;;;;;;;5.10;2.42;;;4.50;97.00;;;;;;10360499;28;20026;-68
2024/01/08 05:34:47;;;;;;;6.47;3.03;;;4.50;97.00;;;;;;10369199;28;20030;-68
2024/01/08 05:39:48;;;;;;;4.63;2.30;;;4.50;97.10;;;;;;10364733;28;20014;-66
2024/01/08 05:44:48;;;;;;;6.15;2.28;;;4.50;97.10;;;;;;10343559;28;20030;-67
2024/01/08 05:49:49;;;;;;;4.78;2.47;;;4.50;97.10;;;;;;10375225;28;20021;-66
2024/01/08 05:54:49;;;;;;;4.53;2.40;;;4.50;97.20;;;;;;10368551;28;20025;-67
2024/01/08 05:59:50;;;;;;;6.25;2.92;;;4.40;96.90;;;;;;10373467;28;20112;-67
2024/01/08 06:04:50;;;;;;;5.15;2.47;;;4.40;97.00;;;;;;10370458;28;20439;-67
2024/01/08 06:09:51;;;;;;;4.13;2.63;;;4.40;97.10;;;;;;10373943;28;20030;-67
2024/01/08 06:14:52;;;;;;;4.07;2.13;;;4.40;97.10;;;;;;10381347;28;20112;-67
2024/01/08 06:19:52;;;;;;;3.78;2.03;;;4.40;97.20;;;;;;10380219;28;20032;-67
2024/01/08 06:24:53;;;;;;;2.75;1.77;;;4.40;97.20;;;;;;10355173;28;20068;-67
2024/01/08 06:29:53;;;;;;;3.65;2.15;;;4.40;97.20;;;;;;10357332;28;20041;-67
2024/01/08 06:34:54;;;;;;;4.30;2.20;;;4.40;97.20;;;;;;10374010;28;20025;-67
2024/01/08 06:39:54;;;;;;;3.50;2.25;;;4.40;97.20;;;;;;10378448;28;20027;-68
2024/01/08 06:44:55;;;;;;;5.30;2.40;;;4.50;97.20;;;;;;10380418;28;20112;-67
2024/01/08 06:49:56;;;;;;;4.18;2.05;;;4.50;97.20;;;;;;10366599;28;20018;-66
2024/01/08 06:54:56;;;;;;;2.83;1.60;;;4.40;97.20;;;;;;10371265;28;20029;-67
2024/01/08 06:59:57;;;;;;;3.35;2.17;;;4.50;97.30;;;;;;10377755;28;20018;-67
2024/01/08 07:04:57;;;;;;;4.38;2.08;;;4.40;97.20;;;;;;10350601;28;20109;-67
2024/01/08 07:09:59;;;;;;;3.65;2.10;;;4.40;97.20;;;;;;10375541;28;20529;-67
2024/01/08 07:14:59;;;;;;;4.15;1.77;;;4.50;97.20;;;;;;10366933;28;20021;-67
2024/01/08 07:20:00;;;;;;;4.85;2.00;;;4.40;97.20;;;;;;10378686;28;20034;-68
2024/01/08 07:25:00;;;;;;;4.97;2.28;;;4.40;97.20;;;;;;10376259;28;20022;-68
2024/01/08 07:30:01;;;;;;;6.10;2.10;;;4.40;97.20;;;;;;10374439;28;20030;-68
2024/01/08 07:35:02;;;;;;;5.13;2.33;;;4.50;97.20;;;;;;10377940;28;20486;-67
2024/01/08 07:40:04;;;;;;;3.63;2.10;;;4.40;97.20;;;;;;10378196;28;20067;-67
2024/01/08 07:45:05;;;;;;;3.10;2.00;;;4.40;97.20;;;;;;10361702;28;20032;-67
2024/01/08 07:50:07;;;;;;;3.22;1.83;;;4.50;97.20;;;;;;10354031;28;20528;-66
2024/01/08 07:55:08;;;;;;;6.15;2.67;;;4.50;97.20;;;;;;10380121;28;20075;-67
2024/01/08 08:00:11;;;;;;;4.53;2.35;;;4.50;97.20;;;;;;10373892;28;20483;-67
2024/01/08 08:05:12;;;;;;;4.93;2.13;;;4.50;97.20;;;;;;10374077;28;20504;-67
2024/01/08 08:10:12;;;;;;;3.83;2.10;;;4.40;97.20;;;;;;10386360;28;20032;-68
2024/01/08 08:15:13;;;;;;;4.25;2.10;;;4.50;97.20;;;;;;10368151;28;20120;-67
2024/01/08 08:20:14;;;;;;;4.65;2.28;;;4.50;97.20;;;;;;10383344;28;20109;-67
2024/01/08 08:25:14;;;;;;;4.35;2.05;;;4.50;97.20;;;;;;10382871;28;20034;-68
2024/01/08 08:30:16;;;;;;;4.70;2.40;;;4.50;97.20;;;;;;10382116;28;20410;-67
2024/01/08 08:35:17;;;;;;;5.35;2.22;;;4.50;97.20;;;;;;10342478;28;20124;-67
2024/01/08 08:40:17;;;;;;;3.50;1.80;;;4.50;97.20;;;;;;10371798;28;20019;-67
2024/01/08 08:45:18;;;;;;;3.35;2.13;;;4.50;97.20;;;;;;10363391;28;20025;-67
2024/01/08 08:50:19;;;;;;;2.85;1.88;;;4.50;97.20;;;;;;10357713;28;20505;-67
2024/01/08 08:55:20;;;;;;;3.88;2.10;;;4.50;97.20;;;;;;10361536;28;20021;-67
2024/01/08 09:00:21;;;;;;;3.97;2.10;;;4.40;97.20;;;;;;10375810;28;20083;-67
2024/01/08 09:05:22;;;;;;;4.50;1.88;;;4.40;97.20;;;;;;10355096;28;20084;-67
2024/01/08 09:10:22;;;;;;;3.70;1.88;;;4.40;97.20;;;;;;10356272;28;20122;-67
2024/01/08 09:15:23;;;;;;;3.58;2.05;;;4.40;97.20;;;;;;10361996;28;20427;-65
2024/01/08 09:20:24;;;;;;;3.33;2.05;;;4.40;97.10;;;;;;10361487;28;20076;-65
2024/01/08 09:25:24;;;;;;;3.08;1.90;;;4.50;97.20;;;;;;10358115;28;20026;-66
2024/01/08 09:30:25;;;;;;;3.58;1.45;;;4.50;97.20;;;;;;10364143;28;20528;-66
2024/01/08 09:35:25;;;;;;;2.28;1.58;;;4.50;97.20;;;;;;10362833;28;20440;-65
2024/01/08 09:40:26;;;;;;;2.97;1.52;;;4.60;97.20;;;;;;10363860;28;20494;-67
2024/01/08 09:45:29;;;;;;;3.83;1.90;;;4.50;97.20;;;;;;10365286;28;20524;-67
2024/01/08 09:50:30;;;;;;;4.20;1.70;;;4.50;97.20;;;;;;10366162;28;20039;-67
2024/01/08 09:55:32;;;;;;;3.50;2.10;;;4.50;97.20;;;;;;10368398;28;20058;-67
2024/01/08 10:00:33;;;;;;;4.90;1.85;;;4.50;97.20;;;;;;10363250;28;20475;-66
2024/01/08 10:05:35;;;;;;;3.70;1.83;;;4.50;97.20;;;;;;10366726;28;20030;-67
2024/01/08 10:10:36;;;;;;;3.55;1.73;;;4.50;97.20;;;;;;10364962;28;20033;-67
2024/01/08 10:15:37;;;;;;;3.28;1.42;;;4.60;97.20;;;;;;10365465;28;20021;-67
2024/01/08 10:20:38;;;;;;;3.97;1.73;;;4.50;97.20;;;;;;10361772;28;20029;-67
2024/01/08 10:25:39;;;;;;;4.28;1.92;;;4.50;97.20;;;;;;10362922;28;20037;-67
2024/01/08 10:30:40;;;;;;;2.85;1.60;;;4.50;97.20;;;;;;10370904;28;20517;-67
2024/01/08 10:35:41;;;;;;;2.80;1.40;;;4.50;97.20;;;;;;10362569;28;20017;-67
2024/01/08 10:40:42;;;;;;;4.00;1.85;;;4.50;97.20;;;;;;10359804;28;20021;-67
2024/01/08 10:45:44;;;;;;;4.32;1.58;;;4.50;97.20;;;;;;10368926;28;20018;-67
2024/01/08 10:50:46;;;;;;;4.82;1.90;;;4.50;97.20;;;;;;10368353;28;20018;-67
2024/01/08 10:55:49;;;;;;;2.65;1.73;;;4.60;97.30;;;;;;10364021;28;20026;-67
2024/01/08 11:00:52;;;;;;;2.03;1.48;;;4.60;97.20;;;;;;10367446;28;20028;-67
2024/01/08 11:05:54;;;;;;;3.83;1.73;;;4.60;97.20;;;;;;10363727;28;20021;-68
2024/01/08 11:11:09;;;;;;;3.03;1.80;;;4.60;97.20;;;;;;10360570;28;20037;-67
2024/01/08 11:16:12;;;;;;;2.65;1.60;;;4.60;97.20;;;;;;10368435;28;20493;-67
2024/01/08 11:21:13;;;;;;;2.72;1.63;;;4.60;97.20;;;;;;10364043;28;20021;-67
2024/01/08 11:26:22;;;;;;;2.70;1.60;;;4.60;97.10;;;;;;10357832;28;20025;-67
2024/01/08 11:31:29;;;;;;;3.08;1.40;;;4.60;97.10;;;;;;10371779;28;20670;-67
2024/01/08 11:36:46;;;;;;;3.50;1.90;;;4.70;97.10;;;;;;10373421;28;20045;-67
2024/01/08 11:41:47;;;;;;;3.92;1.65;;;4.70;97.10;;;;;;10350003;28;20030;-66
2024/01/08 11:46:47;;;;;;;1.95;1.38;;;4.70;97.10;;;;;;10366205;28;20041;-66
2024/01/08 11:51:57;;;;;;;1.70;1.40;;;4.70;97.10;;;;;;10374309;28;20544;-66
2024/01/08 11:56:57;;;;;;;1.83;1.40;;;4.70;97.10;;;;;;10357369;28;20048;-67
2024/01/08 12:02:08;;;;;;;2.33;1.70;;;4.80;97.10;;;;;;10372136;28;20026;-67
2024/01/08 12:07:12;;;;;;;3.83;1.60;;;4.80;97.00;;;;;;10372739;28;20091;-67
2024/01/08 12:12:12;;;;;;;4.97;1.85;;;4.80;97.10;;;;;;10354908;28;20799;-67
2024/01/08 12:17:16;;;;;;;3.13;1.52;;;4.90;97.10;;;;;;10362535;28;20017;-67
2024/01/08 12:22:19;;;;;;;2.95;1.70;;;4.90;97.10;;;;;;10369059;28;20445;-67
2024/01/08 12:27:21;;;;;;;2.90;1.70;;;4.90;97.10;;;;;;10369635;28;20113;-67
2024/01/08 12:32:23;;;;;;;2.28;1.67;;;4.90;97.00;;;;;;10372280;28;20089;-67
2024/01/08 12:37:32;;;;;;;2.83;1.58;;;4.90;97.00;;;;;;10376182;28;20108;-67
2024/01/08 12:42:35;;;;;;;3.43;1.70;;;4.90;97.10;;;;;;10374930;28;20052;-67
2024/01/08 12:47:36;;;;;;;4.18;1.70;;;4.90;97.10;;;;;;10369043;28;20050;-67
2024/01/08 12:52:36;;;;;;;2.97;1.60;;;4.90;97.10;;;;;;10372855;28;20109;-67
2024/01/08 12:57:37;;;;;;;2.80;1.60;;;4.90;97.10;;;;;;10367313;28;20819;-66
2024/01/08 13:02:37;;;;;;;4.30;2.03;;;4.90;97.10;;;;;;10378734;28;20022;-67
2024/01/08 13:07:38;;;;;;;2.95;1.65;;;4.90;97.10;;;;;;10382536;28;20040;-67
2024/01/08 13:12:39;;;;;;;3.53;1.98;;;4.80;97.10;;;;;;10369275;28;20091;-68
2024/01/08 13:17:40;;;;;;;4.00;2.20;;;4.80;97.10;;;;;;10360238;28;20039;-69
2024/01/08 13:22:41;;;;;;;3.75;1.80;;;4.80;96.90;;;;;;10372770;28;20048;-70
2024/01/08 13:27:41;;;;;;;3.63;2.20;;;4.80;97.00;;;;;;10361762;28;20030;-67
2024/01/08 13:32:42;;;;;;;3.08;2.10;;;4.80;97.00;;;;;;10366062;28;20034;-70
2024/01/08 13:37:42;;;;;;;3.67;1.88;;;4.80;97.00;;;;;;10362197;28;20030;-70
2024/01/08 13:42:44;;;;;;;3.53;1.90;;;4.90;96.90;;;;;;10357729;28;20029;-68
2024/01/08 13:47:49;;;;;;;2.70;1.90;;;4.90;96.80;;;;;;10365035;28;20027;-69
2024/01/08 13:52:49;;;;;;;3.42;2.20;;;4.90;96.80;;;;;;10365946;28;20116;-69
2024/01/08 13:57:50;;;;;;;4.20;1.90;;;4.90;96.80;;;;;;10372631;28;20040;-69
2024/01/08 14:02:52;;;;;;;4.15;2.05;;;4.90;96.80;;;;;;10366892;28;20030;-69
2024/01/08 14:07:53;;;;;;;4.53;2.15;;;4.90;96.80;;;;;;10365493;28;20029;-69
2024/01/08 14:12:54;;;;;;;7.22;2.25;;;4.90;96.80;;;;;;10368562;28;20025;-69
2024/01/08 14:17:57;;;;;;;4.68;2.42;;;4.90;96.90;;;;;;10361938;28;20033;-69
2024/01/08 14:22:57;;;;;;;3.47;2.10;;;4.90;96.90;;;;;;10372906;28;20018;-69
2024/01/08 14:27:58;;;;;;;8.18;2.13;;;4.90;96.80;;;;;;10369406;28;20375;-69
2024/01/08 14:32:59;;;;;;;5.68;2.20;;;4.90;97.00;;;;;;10373871;28;20037;-68
2024/01/08 14:38:00;;;;;;;5.50;2.10;;;5.00;96.90;;;;;;10366595;28;20033;-69
2024/01/08 14:43:00;;;;;;;4.13;2.03;;;4.90;96.90;;;;;;10377679;28;20025;-67
2024/01/08 14:48:01;;;;;;;2.65;2.13;;;4.90;97.00;;;;;;10373920;28;20072;-67
2024/01/08 14:53:03;;;;;;;3.28;2.03;;;5.10;97.10;;;;;;10369224;28;20026;-69
2024/01/08 14:58:04;;;;;;;4.38;2.08;;;4.90;97.00;;;;;;10353601;28;20014;-68
2024/01/08 15:03:04;;;;;;;6.70;2.38;;;4.80;97.00;;;;;;10366092;28;20053;-68
2024/01/08 15:08:05;;;;;;;3.17;1.80;;;4.80;97.00;;;;;;10352796;28;20404;-68
2024/01/08 15:13:06;;;;;;;5.60;1.88;;;4.80;97.10;;;;;;10361399;28;20033;-68
2024/01/08 15:18:06;;;;;;;4.25;2.10;;;4.80;97.10;;;;;;10359030;28;20030;-68
2024/01/08 15:23:07;;;;;;;3.97;1.75;;;4.80;97.20;;;;;;10364778;28;20095;-69
2024/01/08 15:28:07;;;;;;;4.85;2.00;;;4.80;97.20;;;;;;10355794;28;20025;-68
2024/01/08 15:33:08;;;;;;;4.55;1.90;;;4.90;97.30;;;;;;10362925;28;20129;-69
2024/01/08 15:38:09;;;;;;;3.72;1.90;;;4.80;97.30;;;;;;10364018;28;20033;-70
2024/01/08 15:43:10;;;;;;;3.75;1.85;;;4.80;97.30;;;;;;10365448;28;20038;-70
2024/01/08 15:48:11;;;;;;;4.75;2.20;;;4.70;97.10;;;;;;10363129;28;20030;-67
2024/01/08 15:53:11;;;;;;;3.65;2.05;;;4.70;96.90;;;;;;10343986;28;20029;-71
2024/01/08 15:58:12;;;;;;;4.35;2.05;;;4.70;96.70;;;;;;10350654;28;20050;-70
2024/01/08 16:03:13;;;;;;;3.75;1.90;;;4.60;96.60;;;;;;10370005;28;20014;-69
2024/01/08 16:08:13;;;;;;;2.20;1.83;;;4.50;96.50;;;;;;10358663;28;20014;-69
2024/01/08 16:13:14;;;;;;;3.10;2.00;;;4.50;96.40;;;;;;10377363;28;20021;-69
2024/01/08 16:18:20;;;;;;;3.25;1.88;;;4.40;96.30;;;;;;10374992;28;20025;-69
2024/01/08 16:23:21;;;;;;;4.20;2.28;;;4.50;96.50;;;;;;10384858;28;20029;-69
2024/01/08 16:28:21;;;;;;;4.03;2.22;;;4.50;96.40;;;;;;10388512;28;20045;-71
2024/01/08 16:33:23;;;;;;;8.18;2.33;;;4.60;96.30;;;;;;10379017;28;20041;-69
2024/01/08 16:38:28;;;;;;;4.35;2.20;;;4.70;96.50;;;;;;10357138;28;20033;-69
2024/01/08 16:43:29;;;;;;;4.15;2.13;;;4.70;96.30;;;;;;10384710;28;20022;-69
2024/01/08 16:48:30;;;;;;;4.38;2.25;;;4.70;96.40;;;;;;10374586;28;20540;-69
2024/01/08 16:53:30;;;;;;;3.58;2.28;;;4.60;96.40;;;;;;10360132;28;20029;-70
2024/01/08 16:58:31;;;;;;;5.50;2.30;;;4.60;96.50;;;;;;10364436;28;20085;-69
2024/01/08 17:03:32;;;;;;;3.78;2.13;;;4.60;96.60;;;;;;10363435;28;20026;-69
2024/01/08 17:08:32;;;;;;;4.57;1.95;;;4.50;96.60;;;;;;10339694;28;20031;-68
2024/01/08 17:13:33;;;;;;;7.38;1.92;;;4.50;96.70;;;;;;10362219;28;20030;-70
2024/01/08 17:18:34;;;;;;;6.18;2.28;;;4.50;96.70;;;;;;10361820;28;20033;-68
2024/01/08 17:23:34;;;;;;;5.32;2.15;;;4.50;96.70;;;;;;10370913;28;20021;-68
2024/01/08 17:28:35;;;;;;;5.68;2.97;;;4.50;96.70;;;;;;10361512;28;20022;-70
2024/01/08 17:33:37;;;;;;;7.20;2.25;;;4.50;97.10;;;;;;10367949;28;20034;-70
2024/01/08 17:38:37;;;;;;;59.85;5.57;;;4.80;97.70;;;;;;10364438;28;20133;-70
2024/01/08 17:43:38;;;;;;;27.45;6.25;;;4.90;98.20;;;;;;10364330;28;20026;-72
2024/01/08 17:48:38;;;;;;;25.50;4.35;;;4.90;97.70;;;;;;10366520;28;20516;-70
2024/01/08 17:53:39;;;;;;;32.38;3.97;;;5.20;98.50;;;;;;10360159;28;20116;-69
2024/01/08 17:58:40;;;;;;;23.85;5.28;;;5.20;98.00;;;;;;10378111;28;20083;-68
2024/01/08 18:03:41;;;;;;;32.40;5.10;;;5.20;97.90;;;;;;10361567;28;20030;-67
2024/01/08 18:08:42;;;;;;;27.98;3.38;;;5.20;98.40;;;;;;10363104;28;20042;-67
2024/01/08 18:13:44;;;;;;;18.52;3.15;;;5.20;98.20;;;;;;10362667;28;20447;-68
2024/01/08 18:18:44;;;;;;;10.88;2.92;;;5.20;98.10;;;;;;10370988;28;20056;-70
2024/01/08 18:23:45;;;;;;;14.52;3.00;;;5.10;98.20;;;;;;10370689;28;20430;-68
2024/01/08 18:28:47;;;;;;;12.95;2.90;;;5.20;98.40;;;;;;10365029;28;20041;-68
2024/01/08 18:33:47;;;;;;;12.07;2.85;;;5.10;98.30;;;;;;10371660;28;20048;-68
2024/01/08 18:38:48;;;;;;;5.05;2.40;;;5.00;98.30;;;;;;10350656;28;20510;-68
2024/01/08 18:43:48;;;;;;;8.57;2.22;;;5.00;98.40;;;;;;10364406;28;20112;-67
2024/01/08 18:48:49;;;;;;;11.18;2.88;;;4.90;98.40;;;;;;10353104;28;20485;-67
2024/01/08 18:53:50;;;;;;;10.98;2.45;;;4.90;98.40;;;;;;10344289;28;20577;-67
2024/01/08 18:58:51;;;;;;;11.57;2.65;;;4.80;98.40;;;;;;10351840;28;20030;-67
2024/01/08 19:03:52;;;;;;;9.73;2.40;;;4.80;98.40;;;;;;10349237;28;20413;-67
2024/01/08 19:08:53;;;;;;;5.85;1.98;;;4.80;98.40;;;;;;10353940;28;20041;-67
2024/01/08 19:13:53;;;;;;;9.85;3.05;;;4.70;98.40;;;;;;10357470;28;20030;-67
2024/01/08 19:18:54;;;;;;;4.30;1.77;;;4.70;98.30;;;;;;10339297;28;20038;-69
2024/01/08 19:23:54;;;;;;;8.23;2.42;;;4.70;98.30;;;;;;10355103;28;20044;-67
2024/01/08 19:28:55;;;;;;;9.00;1.77;;;4.70;98.40;;;;;;10365850;28;20276;-67
2024/01/08 19:33:56;;;;;;;9.23;1.80;;;4.70;98.40;;;;;;10357640;28;20034;-68
2024/01/08 19:38:56;;;;;;;5.72;2.05;;;4.70;98.30;;;;;;10353785;28;20014;-67
2024/01/08 19:43:57;;;;;;;4.22;1.50;;;4.60;98.30;;;;;;10358371;28;20018;-67
2024/01/08 19:48:57;;;;;;;5.13;1.70;;;4.60;98.30;;;;;;10362297;28;20109;-67
2024/01/08 19:53:58;;;;;;;4.32;1.92;;;4.60;98.30;;;;;;10359795;28;20088;-67
2024/01/08 19:58:59;;;;;;;5.80;2.00;;;4.60;98.30;;;;;;10364193;28;20026;-67
2024/01/08 20:04:00;;;;;;;4.10;1.70;;;4.60;98.30;;;;;;10348407;28;20846;-67
2024/01/08 20:09:00;;;;;;;3.05;1.52;;;4.60;98.30;;;;;;10370756;28;20080;-67
2024/01/08 20:14:01;;;;;;;4.47;2.08;;;4.50;98.30;;;;;;10371107;28;20028;-67
2024/01/08 20:19:01;;;;;;;5.20;1.85;;;4.50;98.30;;;;;;10366559;28;20027;-67
2024/01/08 20:24:02;;;;;;;4.40;1.35;;;4.50;98.20;;;;;;10346285;28;20022;-67
2024/01/08 20:29:03;;;;;;;3.65;1.80;;;4.50;98.20;;;;;;10369540;28;20089;-67
2024/01/08 20:34:03;;;;;;;3.63;1.58;;;4.50;98.20;;;;;;10363883;28;20394;-67
2024/01/08 20:39:04;;;;;;;5.15;1.70;;;4.50;98.30;;;;;;10362975;28;20398;-68
2024/01/08 20:44:05;;;;;;;5.07;1.70;;;4.50;98.30;;;;;;10371550;28;20022;-69
2024/01/08 20:49:06;;;;;;;4.40;1.60;;;4.60;98.40;;;;;;10365893;28;20025;-68
2024/01/08 20:54:06;;;;;;;2.90;1.63;;;4.60;98.30;;;;;;10371675;28;20050;-68
2024/01/08 20:59:07;;;;;;;5.75;1.90;;;4.50;98.20;;;;;;10361971;28;20124;-66
2024/01/08 21:04:09;;;;;;;3.78;1.95;;;4.60;98.30;;;;;;10370740;28;20092;-67
2024/01/08 21:09:10;;;;;;;2.78;1.40;;;4.50;98.20;;;;;;10371522;28;20022;-67
2024/01/08 21:14:11;;;;;;;8.32;1.90;;;4.50;98.20;;;;;;10358837;28;20025;-68
2024/01/08 21:19:11;;;;;;;3.20;1.30;;;4.50;98.30;;;;;;10374999;28;20014;-67
2024/01/08 21:24:12;;;;;;;5.50;1.50;;;4.50;98.30;;;;;;10363311;28;20026;-68
2024/01/08 21:29:12;;;;;;;3.30;1.55;;;4.50;98.30;;;;;;10366996;28;20105;-68
2024/01/08 21:34:15;;;;;;;2.35;1.55;;;4.50;98.30;;;;;;10366434;28;20163;-68
2024/01/08 21:39:16;;;;;;;2.42;1.38;;;4.40;98.30;;;;;;10348998;28;20025;-67
2024/01/08 21:44:17;;;;;;;3.45;1.48;;;4.40;98.30;;;;;;10364987;28;20485;-67
2024/01/08 21:49:17;;;;;;;2.65;1.40;;;4.40;98.30;;;;;;10347572;28;20034;-68
2024/01/08 21:54:18;;;;;;;3.00;1.42;;;4.40;98.30;;;;;;10360703;28;20121;-68
2024/01/08 21:59:18;;;;;;;4.13;1.67;;;4.40;98.30;;;;;;10364078;28;20026;-67
2024/01/08 22:04:19;;;;;;;2.67;1.27;;;4.40;98.30;;;;;;10370771;28;20037;-68
2024/01/08 22:09:19;;;;;;;2.08;1.40;;;4.40;98.30;;;;;;10359643;28;20116;-67
2024/01/08 22:14:24;;;;;;;2.53;1.17;;;4.40;98.30;;;;;;10366735;28;20096;-67
2024/01/08 22:19:25;;;;;;;3.38;1.92;;;4.40;98.30;;;;;;10362659;28;20018;-68
2024/01/08 22:24:26;;;;;;;2.90;1.45;;;5.70;98.60;;;;;;10357049;28;20394;-68
2024/01/08 22:29:26;;;;;;;3.65;1.60;;;4.40;98.20;;;;;;10364373;28;20411;-69
2024/01/08 22:34:27;;;;;;;3.97;1.67;;;4.40;98.30;;;;;;10366647;28;20034;-69
2024/01/08 22:39:27;;;;;;;3.15;1.60;;;4.40;98.40;;;;;;10366872;28;20025;-68
2024/01/08 22:44:28;;;;;;;3.67;1.45;;;4.40;98.30;;;;;;10367171;28;20113;-68
2024/01/08 22:49:28;;;;;;;2.47;1.42;;;4.30;98.30;;;;;;10361981;28;20026;-68
2024/01/08 22:54:29;;;;;;;2.38;1.33;;;4.30;98.30;;;;;;10362041;28;20036;-68
2024/01/08 22:59:29;;;;;;;2.60;1.55;;;4.30;98.30;;;;;;10369407;28;20083;-68
2024/01/08 23:04:30;;;;;;;2.28;1.38;;;4.30;98.30;;;;;;10374194;28;20045;-68
2024/01/08 23:09:31;;;;;;;1.98;1.30;;;4.30;98.30;;;;;;10367027;28;20121;-68
2024/01/08 23:14:31;;;;;;;3.20;1.65;;;4.30;98.30;;;;;;10370471;28;20092;-68
2024/01/08 23:19:32;;;;;;;3.55;1.27;;;4.30;98.30;;;;;;10352779;28;20671;-68
2024/01/08 23:24:36;;;;;;;2.65;1.50;;;4.30;98.30;;;;;;10375487;28;20028;-69
2024/01/08 23:29:36;;;;;;;2.92;1.30;;;4.30;98.30;;;;;;10375669;28;20501;-68
2024/01/08 23:34:37;;;;;;;3.15;1.40;;;4.30;98.30;;;;;;10347635;28;20018;-68
2024/01/08 23:39:37;;;;;;;2.47;1.42;;;4.30;98.30;;;;;;10358310;28;20030;-68
2024/01/08 23:44:38;;;;;;;2.20;1.20;;;4.30;98.30;;;;;;10381896;28;20034;-68
2024/01/08 23:49:39;;;;;;;3.15;1.40;;;4.30;98.30;;;;;;10374020;28;20033;-68
2024/01/08 23:54:40;;;;;;;3.38;1.35;;;4.30;98.30;;;;;;10380722;28;20628;-68
2024/01/08 23:59:40;;;;;;;5.00;1.60;;;4.20;98.30;;;;;;10378968;28;20022;-68
